createdAt,value
2023-05-19T00:01:31.161Z,3.95
2023-05-19T00:03:59.998Z,3.65
2023-05-19T00:06:29.422Z,4.15
2023-05-19T00:09:01.289Z,4.40
2023-05-19T00:11:29.259Z,3.97
2023-05-19T00:13:57.534Z,3.85
2023-05-19T00:16:25.786Z,3.72
2023-05-19T00:18:54.831Z,4.03
2023-05-19T00:21:22.640Z,3.25
2023-05-19T00:23:50.276Z,3.58
2023-05-19T00:26:17.865Z,3.55
2023-05-19T00:28:45.759Z,3.67
2023-05-19T00:31:13.600Z,2.67
2023-05-19T00:33:44.992Z,4.03
2023-05-19T00:36:12.626Z,3.47
2023-05-19T00:38:40.190Z,3.97
2023-05-19T00:41:08.159Z,3.38
2023-05-19T00:43:36.156Z,3.13
2023-05-19T00:46:03.822Z,3.10
2023-05-19T00:48:34.213Z,4.05
2023-05-19T00:51:06.550Z,3.00
2023-05-19T00:53:35.176Z,3.03
2023-05-19T00:56:03.427Z,3.92
2023-05-19T00:58:32.803Z,3.38
2023-05-19T01:01:08.603Z,3.00
2023-05-19T01:03:36.992Z,2.88
2023-05-19T01:06:08.301Z,3.67
2023-05-19T01:08:36.506Z,3.38
2023-05-19T01:11:04.240Z,3.28
2023-05-19T01:13:32.416Z,3.17
2023-05-19T01:16:17.514Z,3.95
2023-05-19T01:18:46.524Z,3.10
2023-05-19T01:21:31.651Z,3.33
2023-05-19T01:24:09.227Z,3.55
2023-05-19T01:26:52.032Z,3.78
2023-05-19T01:29:19.493Z,3.42
2023-05-19T01:31:48.132Z,3.75
2023-05-19T01:34:17.374Z,4.63
2023-05-19T01:36:45.647Z,3.97
2023-05-19T01:39:14.189Z,3.83
2023-05-19T01:41:42.716Z,4.07
2023-05-19T01:44:11.140Z,4.60
2023-05-19T01:46:39.193Z,4.65
2023-05-19T01:49:08.686Z,3.97
2023-05-19T01:51:36.600Z,4.13
2023-05-19T01:54:04.292Z,4.28
2023-05-19T01:56:42.136Z,4.13
2023-05-19T01:59:27.986Z,4.65
2023-05-19T02:02:04.665Z,4.60
2023-05-19T02:04:41.387Z,4.38
2023-05-19T02:07:15.453Z,4.65
2023-05-19T02:09:52.121Z,3.90
2023-05-19T02:12:22.795Z,3.85
2023-05-19T02:17:18.905Z,3.88
2023-05-19T02:19:46.349Z,4.40
2023-05-19T02:22:13.786Z,4.03
2023-05-19T02:24:41.849Z,4.05
2023-05-19T02:27:09.333Z,5.28
2023-05-19T02:29:37.934Z,3.47
2023-05-19T02:32:08.097Z,3.97
2023-05-19T02:34:35.906Z,5.22
2023-05-19T02:37:03.968Z,4.00
2023-05-19T02:39:35.187Z,4.10
2023-05-19T02:42:05.937Z,4.72
2023-05-19T02:47:01.816Z,3.70
2023-05-19T02:49:36.116Z,4.55
2023-05-19T02:52:04.059Z,4.35
2023-05-19T02:54:32.027Z,4.10
2023-05-19T02:57:02.650Z,4.80
2023-05-19T03:02:00.873Z,4.93
2023-05-19T03:04:28.863Z,4.05
2023-05-19T03:06:56.478Z,4.20
2023-05-19T03:09:23.856Z,3.97
2023-05-19T03:11:51.171Z,4.18
2023-05-19T03:14:18.904Z,4.28
2023-05-19T03:16:47.030Z,4.18
2023-05-19T03:19:16.781Z,4.15
2023-05-19T03:21:44.129Z,4.47
2023-05-19T03:24:11.482Z,3.83
2023-05-19T03:26:38.797Z,4.20
2023-05-19T03:29:10.230Z,4.70
2023-05-19T03:31:40.504Z,4.35
2023-05-19T03:34:08.049Z,4.70
2023-05-19T03:36:40.032Z,4.25
2023-05-19T03:39:07.948Z,5.22
2023-05-19T03:41:36.128Z,5.88
2023-05-19T03:44:06.234Z,4.18
2023-05-19T03:46:33.478Z,4.30
2023-05-19T03:49:00.799Z,4.28
2023-05-19T03:51:31.154Z,3.92
2023-05-19T03:53:58.621Z,4.75
2023-05-19T03:56:27.733Z,4.70
2023-05-19T03:58:55.582Z,3.95
2023-05-19T04:01:23.274Z,4.43
2023-05-19T04:03:50.823Z,3.80
2023-05-19T04:06:19.165Z,4.60
2023-05-19T04:08:46.551Z,4.47
2023-05-19T04:11:14.303Z,5.20
2023-05-19T04:13:45.282Z,4.78
2023-05-19T04:16:12.837Z,5.10
2023-05-19T04:18:42.462Z,4.45
2023-05-19T04:21:09.859Z,4.53
2023-05-19T04:23:37.354Z,5.47
2023-05-19T04:26:07.123Z,4.53
2023-05-19T04:28:38.068Z,6.18
2023-05-19T04:31:10.618Z,5.10
2023-05-19T04:33:38.452Z,5.50
2023-05-19T04:36:08.916Z,4.80
2023-05-19T04:38:36.891Z,4.28
2023-05-19T04:41:04.620Z,4.97
2023-05-19T04:43:48.439Z,5.78
2023-05-19T04:46:15.998Z,5.30
2023-05-19T04:48:44.837Z,5.10
2023-05-19T04:51:14.391Z,4.60
2023-05-19T04:53:44.173Z,4.80
2023-05-19T04:56:15.858Z,4.60
2023-05-19T04:58:44.770Z,5.30
2023-05-19T05:01:14.210Z,4.72
2023-05-19T05:03:44.463Z,5.30
2023-05-19T05:06:12.376Z,4.63
2023-05-19T05:08:41.276Z,4.68
2023-05-19T05:11:18.565Z,4.90
2023-05-19T05:13:46.956Z,5.35
2023-05-19T05:16:15.157Z,5.18
2023-05-19T05:18:44.789Z,5.30
2023-05-19T05:21:13.216Z,5.55
2023-05-19T05:23:44.045Z,5.43
2023-05-19T05:26:18.338Z,4.70
2023-05-19T05:31:15.278Z,4.70
2023-05-19T05:33:43.854Z,4.80
2023-05-19T05:36:11.404Z,5.10
2023-05-19T05:38:39.005Z,4.90
2023-05-19T05:41:06.490Z,4.97
2023-05-19T05:43:34.018Z,5.03
2023-05-19T05:46:01.676Z,4.95
2023-05-19T05:48:29.204Z,5.43
2023-05-19T05:51:02.633Z,4.50
2023-05-19T05:53:32.796Z,4.57
2023-05-19T05:56:01.245Z,4.47
2023-05-19T05:58:29.733Z,4.80
2023-05-19T06:01:00.352Z,4.22
2023-05-19T06:05:56.914Z,4.35
2023-05-19T06:08:24.880Z,4.07
2023-05-19T06:10:52.472Z,5.05
2023-05-19T06:16:06.253Z,3.92
2023-05-19T06:18:36.114Z,3.75
2023-05-19T06:21:04.065Z,3.60
2023-05-19T06:23:31.837Z,3.92
2023-05-19T06:50:36.712Z,3.05
2023-05-19T06:53:03.889Z,3.97
2023-05-19T06:55:35.607Z,2.85
2023-05-19T06:58:06.318Z,2.95
2023-05-19T07:00:33.971Z,2.70
2023-05-19T07:05:33.975Z,2.75
2023-05-19T07:08:03.794Z,3.28
2023-05-19T07:13:10.978Z,2.92
2023-05-19T07:15:39.368Z,2.67
2023-05-19T07:18:16.624Z,2.88
2023-05-19T07:34:18.915Z,3.00
2023-05-19T07:36:46.232Z,2.95
2023-05-19T07:39:14.072Z,2.80
2023-05-19T07:41:42.342Z,2.92
2023-05-19T07:49:45.026Z,2.38
2023-05-19T07:52:25.851Z,2.63
2023-05-19T07:58:13.547Z,2.33
2023-05-19T08:00:43.073Z,2.10
2023-05-19T08:03:10.703Z,2.90
2023-05-19T08:05:37.995Z,2.40
2023-05-19T08:08:05.177Z,2.60
2023-05-19T08:10:32.805Z,2.08
2023-05-19T08:13:00.192Z,2.58
2023-05-19T08:15:27.439Z,2.10
2023-05-19T08:17:54.551Z,2.30
2023-05-19T08:20:24.735Z,2.08
2023-05-19T08:22:51.998Z,2.30
2023-05-19T08:25:19.716Z,3.15
2023-05-19T08:27:46.836Z,2.53
2023-05-19T08:30:14.138Z,2.08
2023-05-19T08:32:41.621Z,2.80
2023-05-19T08:35:09.441Z,2.08
2023-05-19T08:37:41.278Z,2.75
2023-05-19T08:40:09.393Z,2.08
2023-05-19T08:42:37.038Z,1.98
2023-05-19T08:45:04.497Z,3.17
2023-05-19T08:47:33.147Z,2.75
2023-05-19T08:50:05.674Z,2.15
2023-05-19T08:52:36.386Z,2.20
2023-05-19T08:55:26.204Z,2.30
2023-05-19T08:57:53.865Z,2.50
2023-05-19T09:00:21.309Z,2.90
2023-05-19T09:03:00.957Z,3.65
2023-05-19T09:05:35.936Z,3.05
2023-05-19T09:08:04.368Z,2.10
2023-05-19T09:10:31.508Z,2.63
2023-05-19T09:12:58.953Z,2.65
2023-05-19T09:15:29.251Z,1.92
2023-05-19T09:18:16.898Z,2.20
2023-05-19T09:20:45.074Z,1.70
2023-05-19T09:23:19.298Z,2.33
2023-05-19T09:25:50.431Z,1.63
2023-05-19T09:28:33.880Z,1.60
2023-05-19T09:31:06.032Z,1.92
2023-05-19T09:33:35.279Z,1.50
2023-05-19T09:36:03.499Z,1.90
2023-05-19T09:38:30.972Z,1.80
2023-05-19T09:40:59.198Z,2.65
2023-05-19T09:43:33.711Z,1.50
2023-05-19T09:46:11.844Z,2.38
2023-05-19T09:48:40.365Z,1.90
2023-05-19T09:51:10.885Z,2.58
2023-05-19T09:53:39.509Z,1.92
2023-05-19T09:56:10.456Z,3.05
2023-05-19T09:58:38.076Z,2.15
2023-05-19T10:01:06.717Z,1.83
2023-05-19T10:06:05.272Z,1.70
2023-05-19T10:08:42.672Z,1.95
2023-05-19T10:11:11.217Z,1.70
2023-05-19T10:13:39.515Z,2.75
2023-05-19T10:16:07.347Z,1.65
2023-05-19T10:18:37.573Z,1.67
2023-05-19T10:21:07.564Z,1.80
2023-05-19T10:23:35.600Z,1.55
2023-05-19T10:26:06.568Z,2.17
2023-05-19T10:28:40.008Z,1.85
2023-05-19T10:31:09.494Z,1.70
2023-05-19T10:36:29.428Z,2.30
2023-05-19T10:39:01.715Z,1.33
2023-05-19T10:41:29.153Z,1.70
2023-05-19T10:44:11.132Z,1.90
2023-05-19T10:46:41.599Z,1.38
2023-05-19T10:49:09.680Z,1.85
2023-05-19T10:51:37.906Z,2.25
2023-05-19T10:54:16.658Z,2.15
2023-05-19T10:56:47.581Z,1.37
2023-05-19T10:59:50.507Z,1.70
2023-05-19T11:02:37.133Z,1.45
2023-05-19T11:05:15.162Z,1.95
2023-05-19T11:07:48.178Z,2.05
2023-05-19T11:10:23.715Z,1.65
2023-05-19T11:12:52.350Z,1.80
2023-05-19T11:15:25.195Z,2.10
2023-05-19T11:17:54.199Z,1.85
2023-05-19T11:20:24.999Z,1.77
2023-05-19T11:23:03.565Z,2.13
2023-05-19T11:25:47.268Z,1.98
2023-05-19T11:28:21.088Z,1.98
2023-05-19T11:30:53.771Z,1.48
2023-05-19T11:33:27.452Z,1.45
2023-05-19T11:35:58.616Z,1.65
2023-05-19T11:38:31.294Z,1.42
2023-05-19T11:41:00.577Z,2.03
2023-05-19T11:43:28.632Z,1.92
2023-05-19T11:45:56.456Z,1.48
2023-05-19T11:48:24.348Z,1.50
2023-05-19T11:51:05.018Z,2.08
2023-05-19T11:53:35.152Z,1.45
2023-05-19T11:56:10.112Z,1.10
2023-05-19T11:58:39.104Z,1.35
2023-05-19T12:01:08.698Z,1.60
2023-05-19T12:06:06.003Z,1.35
2023-05-19T12:08:33.618Z,2.05
2023-05-19T12:11:02.756Z,1.98
2023-05-19T12:13:30.669Z,1.60
2023-05-19T12:16:01.910Z,1.85
2023-05-19T12:18:34.196Z,1.33
2023-05-19T12:21:01.758Z,1.45
2023-05-19T12:23:32.472Z,2.03
2023-05-19T12:26:02.097Z,1.40
2023-05-19T12:28:33.128Z,1.45
2023-05-19T12:31:02.677Z,1.25
2023-05-19T12:33:32.896Z,1.83
2023-05-19T12:36:02.149Z,1.38
2023-05-19T12:41:16.569Z,1.70
2023-05-19T12:43:45.945Z,2.17
2023-05-19T12:46:13.835Z,1.40
2023-05-19T12:48:53.856Z,2.05
2023-05-19T12:51:22.726Z,1.50
2023-05-19T12:53:58.584Z,2.10
2023-05-19T12:56:30.756Z,2.20
2023-05-19T13:04:24.972Z,1.92
2023-05-19T13:06:53.179Z,2.33
2023-05-19T13:09:23.573Z,1.50
2023-05-19T13:11:54.001Z,1.52
2023-05-19T13:14:21.226Z,1.40
2023-05-19T13:16:48.419Z,1.40
2023-05-19T13:19:24.902Z,1.30
2023-05-19T13:21:52.838Z,1.50
2023-05-19T13:24:20.000Z,1.30
2023-05-19T13:26:48.118Z,1.23
2023-05-19T13:29:15.233Z,2.15
2023-05-19T13:31:42.363Z,1.98
2023-05-19T13:34:09.622Z,1.13
2023-05-19T13:36:37.064Z,1.52
2023-05-19T13:39:04.260Z,1.30
2023-05-19T13:41:31.605Z,1.85
2023-05-19T13:43:59.624Z,1.77
2023-05-19T13:46:40.777Z,1.70
2023-05-19T13:49:14.606Z,1.33
2023-05-19T13:51:44.342Z,1.50
2023-05-19T13:54:11.752Z,1.95
2023-05-19T13:56:38.784Z,1.30
2023-05-19T13:59:05.967Z,1.90
2023-05-19T14:01:33.200Z,1.75
2023-05-19T14:04:01.211Z,1.70
2023-05-19T14:06:28.537Z,1.80
2023-05-19T14:08:55.581Z,1.83
2023-05-19T14:11:23.010Z,1.30
2023-05-19T14:13:52.518Z,1.73
2023-05-19T14:16:23.056Z,1.83
2023-05-19T14:18:50.330Z,1.40
2023-05-19T14:21:17.461Z,1.65
2023-05-19T14:23:44.712Z,1.40
2023-05-19T14:26:11.783Z,1.23
2023-05-19T14:28:38.912Z,1.27
2023-05-19T14:36:23.687Z,1.80
2023-05-19T14:38:51.768Z,1.52
2023-05-19T14:41:18.885Z,1.40
2023-05-19T14:43:47.081Z,1.10
2023-05-19T14:48:42.840Z,1.42
2023-05-19T14:51:09.952Z,1.15
2023-05-19T14:53:36.989Z,1.45
2023-05-19T14:56:05.886Z,1.35
2023-05-19T14:58:33.568Z,1.42
2023-05-19T15:01:00.921Z,1.50
2023-05-19T15:03:28.129Z,1.38
2023-05-19T15:05:55.329Z,1.35
2023-05-19T15:08:22.438Z,1.75
2023-05-19T15:10:50.061Z,1.38
2023-05-19T15:13:19.058Z,1.40
2023-05-19T15:15:46.311Z,1.35
2023-05-19T15:18:15.976Z,1.73
2023-05-19T15:20:44.072Z,1.63
2023-05-19T15:23:11.120Z,1.30
2023-05-19T15:25:38.532Z,1.33
2023-05-19T15:28:05.926Z,1.60
2023-05-19T15:30:33.071Z,1.30
2023-05-19T15:33:00.717Z,1.45
2023-05-19T15:35:34.276Z,1.30
2023-05-19T15:38:06.028Z,1.50
2023-05-19T15:40:34.039Z,1.60
2023-05-19T15:43:01.669Z,1.67
2023-05-19T15:45:28.834Z,1.50
2023-05-19T15:47:56.042Z,1.48
2023-05-19T15:50:23.228Z,1.30
2023-05-19T15:52:50.297Z,1.42
2023-05-19T15:55:17.425Z,1.60
2023-05-19T15:57:44.458Z,1.10
2023-05-19T16:00:11.862Z,1.48
2023-05-19T16:02:39.038Z,1.30
2023-05-19T16:05:06.330Z,1.38
2023-05-19T16:07:33.743Z,1.33
2023-05-19T16:10:00.791Z,1.50
2023-05-19T16:12:29.363Z,1.75
2023-05-19T16:14:56.513Z,1.65
2023-05-19T16:17:23.620Z,1.30
2023-05-19T16:19:52.257Z,1.80
2023-05-19T16:22:19.336Z,1.45
2023-05-19T16:24:46.456Z,1.50
2023-05-19T16:27:13.505Z,1.80
2023-05-19T16:29:42.120Z,1.65
2023-05-19T16:32:09.490Z,1.38
2023-05-19T16:34:36.836Z,1.60
2023-05-19T16:37:04.180Z,1.58
2023-05-19T16:39:31.414Z,1.83
2023-05-19T16:41:59.107Z,1.60
2023-05-19T16:44:26.606Z,1.30
2023-05-19T16:46:53.690Z,1.45
2023-05-19T16:49:20.832Z,1.60
2023-05-19T16:51:48.934Z,1.48
2023-05-19T16:54:16.325Z,1.77
2023-05-19T16:56:43.721Z,2.30
2023-05-19T16:59:10.979Z,1.50
2023-05-19T17:01:38.263Z,1.80
2023-05-19T17:04:05.590Z,3.17
2023-05-19T17:06:32.733Z,1.73
2023-05-19T17:09:00.293Z,1.60
2023-05-19T17:11:27.504Z,1.63
2023-05-19T17:19:16.981Z,1.70
2023-05-19T17:21:44.311Z,1.58
2023-05-19T17:24:11.781Z,1.85
2023-05-19T17:26:38.977Z,1.42
2023-05-19T17:29:06.674Z,1.63
2023-05-19T17:31:33.904Z,1.27
2023-05-19T17:34:01.070Z,1.65
2023-05-19T17:36:28.619Z,1.35
2023-05-19T17:38:56.391Z,1.60
2023-05-19T17:41:23.660Z,1.50
2023-05-19T17:43:50.890Z,1.40
2023-05-19T17:46:18.101Z,1.50
2023-05-19T17:48:45.506Z,1.42
2023-05-19T17:51:12.745Z,1.42
2023-05-19T17:53:40.277Z,1.73
2023-05-19T17:56:10.658Z,1.90
2023-05-19T17:58:45.242Z,2.00
2023-05-19T18:01:12.411Z,1.50
2023-05-19T18:03:39.868Z,1.88
2023-05-19T18:06:07.453Z,1.58
2023-05-19T18:08:35.210Z,1.27
2023-05-19T18:11:02.947Z,1.90
2023-05-19T18:13:30.085Z,1.55
2023-05-19T18:15:59.640Z,1.50
2023-05-19T18:18:27.056Z,1.60
2023-05-19T18:20:54.852Z,1.40
2023-05-19T18:23:22.520Z,1.23
2023-05-19T18:25:51.676Z,1.63
2023-05-19T18:28:18.973Z,1.80
2023-05-19T18:30:46.178Z,1.65
2023-05-19T18:33:13.566Z,1.92
2023-05-19T18:35:40.794Z,1.88
2023-05-19T18:38:07.993Z,2.00
2023-05-19T18:40:35.406Z,1.50
2023-05-19T18:43:03.087Z,1.63
2023-05-19T18:45:30.406Z,2.20
2023-05-19T18:47:57.716Z,2.25
2023-05-19T18:50:24.900Z,2.13
2023-05-19T18:52:52.161Z,1.83
2023-05-19T18:55:19.216Z,1.67
2023-05-19T18:57:46.449Z,1.77
2023-05-19T19:00:14.540Z,1.55
2023-05-19T19:02:41.960Z,1.90
2023-05-19T19:05:09.669Z,1.80
2023-05-19T19:07:44.703Z,1.60
2023-05-19T19:10:12.172Z,1.67
2023-05-19T19:12:39.584Z,1.90
2023-05-19T19:15:07.039Z,1.83
2023-05-19T19:17:34.214Z,1.73
2023-05-19T19:20:01.705Z,1.60
2023-05-19T19:22:28.961Z,1.73
2023-05-19T19:24:56.109Z,2.22
2023-05-19T19:27:24.778Z,1.60
2023-05-19T19:29:51.983Z,1.52
2023-05-19T19:32:19.068Z,1.50
2023-05-19T19:34:46.301Z,2.05
2023-05-19T19:37:14.506Z,1.30
2023-05-19T19:39:41.636Z,1.50
2023-05-19T19:42:08.863Z,1.52
2023-05-19T19:44:36.017Z,1.40
2023-05-19T19:47:06.188Z,1.60
2023-05-19T19:49:33.584Z,1.70
2023-05-19T19:52:00.946Z,1.60
2023-05-19T19:54:28.199Z,1.58
2023-05-19T19:56:55.442Z,1.70
2023-05-19T19:59:22.553Z,2.13
2023-05-19T20:01:49.963Z,1.30
2023-05-19T20:04:17.457Z,1.98
2023-05-19T20:06:44.663Z,1.45
2023-05-19T20:09:12.319Z,1.35
2023-05-19T20:11:39.515Z,2.00
2023-05-19T20:14:06.714Z,1.35
2023-05-19T20:16:33.995Z,1.63
2023-05-19T20:19:01.589Z,1.88
2023-05-19T20:21:28.956Z,1.50
2023-05-19T20:23:56.234Z,1.70
2023-05-19T20:26:23.632Z,1.80
2023-05-19T20:28:50.835Z,1.60
2023-05-19T20:31:18.013Z,1.83
2023-05-19T20:33:45.200Z,2.08
2023-05-19T20:36:12.700Z,1.75
2023-05-19T20:38:40.478Z,2.17
2023-05-19T20:41:07.739Z,1.88
2023-05-19T20:43:34.907Z,1.45
2023-05-19T20:46:03.787Z,1.75
2023-05-19T20:48:31.313Z,1.90
2023-05-19T20:50:58.571Z,1.70
2023-05-19T20:53:25.814Z,2.03
2023-05-19T20:55:53.379Z,1.73
2023-05-19T20:58:20.776Z,1.98
2023-05-19T21:00:53.453Z,2.10
2023-05-19T21:03:22.128Z,1.75
2023-05-19T21:05:50.871Z,1.77
2023-05-19T21:13:39.817Z,2.28
2023-05-19T21:16:07.753Z,2.13
2023-05-19T21:18:35.117Z,2.20
2023-05-19T21:21:03.991Z,2.15
2023-05-19T23:07:42.191Z,2.67
